createdAt,value
2019-06-20T00:02:20.972Z,100549.42
2019-06-20T00:04:53.202Z,100550.09
2019-06-20T00:07:25.436Z,100552.09
2019-06-20T00:09:57.582Z,100551.53
2019-06-20T00:12:29.886Z,100555.33
2019-06-20T00:15:02.024Z,100562.31
2019-06-20T00:17:35.325Z,100560.47
2019-06-20T00:20:07.659Z,100559.19
2019-06-20T00:22:39.877Z,100563.73
2019-06-20T00:25:12.244Z,100559.29
2019-06-20T00:27:44.483Z,100564.58
2019-06-20T00:30:17.086Z,100570.22
2019-06-20T00:32:49.274Z,100572.15
2019-06-20T00:35:21.517Z,100566.61
2019-06-20T00:37:53.774Z,100572.63
2019-06-20T00:40:26.044Z,100575.45
2019-06-20T00:42:58.301Z,100570.00
2019-06-20T00:45:30.487Z,100571.08
2019-06-20T00:48:02.854Z,100574.09
2019-06-20T00:50:35.120Z,100578.25
2019-06-20T00:53:07.394Z,100581.27
2019-06-20T00:55:40.692Z,100579.36
2019-06-20T00:58:12.958Z,100575.91
2019-06-20T01:00:45.226Z,100574.09
2019-06-20T01:03:17.742Z,100575.73
2019-06-20T01:05:50.078Z,100579.73
2019-06-20T01:08:22.610Z,100579.03
2019-06-20T01:10:54.944Z,100581.65
2019-06-20T01:13:33.575Z,100585.55
2019-06-20T01:16:02.392Z,100581.25
2019-06-20T01:18:34.700Z,100578.78
2019-06-20T01:21:08.680Z,100587.31
2019-06-20T01:23:40.996Z,100586.79
2019-06-20T01:26:13.193Z,100578.48
2019-06-20T01:28:45.322Z,100579.80
2019-06-20T01:31:17.904Z,100583.34
2019-06-20T01:33:50.003Z,100589.47
2019-06-20T01:36:22.270Z,100585.52
2019-06-20T01:38:54.510Z,100580.43
2019-06-20T01:41:26.886Z,100585.66
2019-06-20T01:43:59.164Z,100591.11
2019-06-20T01:46:31.618Z,100590.03
2019-06-20T01:49:04.019Z,100588.36
2019-06-20T01:51:36.458Z,100598.47
2019-06-20T01:54:08.889Z,100601.44
2019-06-20T01:56:41.055Z,100606.50
2019-06-20T01:59:13.289Z,100601.85
2019-06-20T02:01:45.590Z,100611.41
2019-06-20T02:04:17.859Z,100605.82
2019-06-20T02:06:50.275Z,100615.61
2019-06-20T02:09:22.578Z,100618.14
2019-06-20T02:11:54.756Z,100616.06
2019-06-20T02:14:26.948Z,100620.31
2019-06-20T02:16:59.196Z,100616.58
2019-06-20T02:19:31.407Z,100619.95
2019-06-20T02:22:03.611Z,100615.58
2019-06-20T02:24:35.822Z,100624.64
2019-06-20T02:27:07.995Z,100622.28
2019-06-20T02:29:41.678Z,100627.72
2019-06-20T02:32:13.951Z,100626.23
2019-06-20T02:34:46.062Z,100626.77
2019-06-20T02:37:18.270Z,100626.77
2019-06-20T02:39:50.456Z,100631.27
2019-06-20T02:42:22.709Z,100624.48
2019-06-20T02:44:54.834Z,100625.81
2019-06-20T02:47:27.277Z,100627.38
2019-06-20T02:49:59.506Z,100630.77
2019-06-20T02:52:32.813Z,100630.50
2019-06-20T02:55:05.581Z,100630.65
2019-06-20T02:57:37.902Z,100630.83
2019-06-20T03:00:11.034Z,100637.58
2019-06-20T03:02:43.243Z,100642.08
2019-06-20T03:05:15.701Z,100640.76
2019-06-20T03:07:49.012Z,100642.36
2019-06-20T03:10:21.039Z,100639.83
2019-06-20T03:12:53.325Z,100640.95
2019-06-20T03:15:25.596Z,100640.54
2019-06-20T03:17:57.825Z,100642.91
2019-06-20T03:20:30.176Z,100648.59
2019-06-20T03:23:02.424Z,100649.91
2019-06-20T03:25:35.595Z,100645.83
2019-06-20T03:28:07.673Z,100651.31
2019-06-20T03:30:39.945Z,100644.28
2019-06-20T03:33:12.162Z,100651.14
2019-06-20T03:35:44.382Z,100656.36
2019-06-20T03:38:16.763Z,100654.97
2019-06-20T03:40:49.053Z,100652.88
2019-06-20T03:43:22.316Z,100657.26
2019-06-20T03:45:54.513Z,100654.72
2019-06-20T03:48:26.638Z,100653.44
2019-06-20T03:50:58.780Z,100656.05
2019-06-20T03:53:30.782Z,100651.05
2019-06-20T03:56:02.979Z,100646.30
2019-06-20T03:58:35.440Z,100649.94
2019-06-20T04:01:07.647Z,100647.05
2019-06-20T04:03:40.295Z,100645.36
2019-06-20T04:06:12.410Z,100652.56
2019-06-20T04:08:44.637Z,100642.95
2019-06-20T04:11:16.984Z,100647.11
2019-06-20T04:13:49.157Z,100646.27
2019-06-20T04:16:21.277Z,100652.02
2019-06-20T04:18:53.222Z,100652.55
2019-06-20T04:21:25.304Z,100647.10
2019-06-20T04:23:57.370Z,100641.52
2019-06-20T04:26:29.674Z,100653.52
2019-06-20T04:29:01.887Z,100653.52
2019-06-20T04:31:33.996Z,100664.11
2019-06-20T04:34:06.308Z,100649.97
2019-06-20T04:36:38.482Z,100651.73
2019-06-20T04:39:19.090Z,100649.98
2019-06-20T04:41:44.747Z,100645.02
2019-06-20T04:44:16.748Z,100638.23
2019-06-20T04:46:50.760Z,100636.79
2019-06-20T04:49:23.157Z,100631.75
2019-06-20T04:51:55.453Z,100627.48
2019-06-20T04:54:27.619Z,100630.67
2019-06-20T04:56:59.825Z,100627.72
2019-06-20T04:59:32.175Z,100632.10
2019-06-20T05:02:04.533Z,100635.42
2019-06-20T05:04:36.540Z,100634.59
2019-06-20T05:07:14.572Z,100636.26
2019-06-20T05:09:46.880Z,100641.52
2019-06-20T05:12:18.949Z,100635.75
2019-06-20T05:14:51.161Z,100636.50
2019-06-20T05:17:23.363Z,100638.91
2019-06-20T05:19:55.509Z,100638.47
2019-06-20T05:22:27.741Z,100635.59
2019-06-20T05:25:00.037Z,100635.97
2019-06-20T05:27:32.201Z,100627.29
2019-06-20T05:30:10.229Z,100640.53
2019-06-20T05:32:42.379Z,100633.84
2019-06-20T05:35:14.602Z,100631.61
2019-06-20T05:37:46.991Z,100636.78
2019-06-20T05:40:19.259Z,100632.56
2019-06-20T05:42:51.444Z,100629.94
2019-06-20T05:45:23.681Z,100642.05
2019-06-20T05:47:55.756Z,100639.85
2019-06-20T05:50:28.142Z,100645.74
2019-06-20T05:53:02.013Z,100644.44
2019-06-20T05:55:34.091Z,100647.37
2019-06-20T05:58:06.473Z,100634.34
2019-06-20T06:00:38.682Z,100637.39
2019-06-20T06:03:13.683Z,100641.23
2019-06-20T06:05:44.814Z,100641.14
2019-06-20T06:08:16.912Z,100632.10
2019-06-20T06:10:48.960Z,100630.48
2019-06-20T06:13:20.978Z,100631.02
2019-06-20T06:15:53.229Z,100626.68
2019-06-20T06:18:25.450Z,100636.89
2019-06-20T06:20:57.704Z,100633.81
2019-06-20T06:23:29.783Z,100632.84
2019-06-20T06:26:02.086Z,100639.59
2019-06-20T06:28:34.095Z,100636.30
2019-06-20T06:31:06.302Z,100623.90
2019-06-20T06:33:38.513Z,100628.05
2019-06-20T06:36:10.739Z,100632.72
2019-06-20T06:38:42.845Z,100628.77
2019-06-20T06:41:15.021Z,100619.46
2019-06-20T06:43:47.228Z,100621.26
2019-06-20T06:46:19.437Z,100627.96
2019-06-20T06:48:51.490Z,100628.38
2019-06-20T06:51:23.767Z,100627.70
2019-06-20T06:53:55.748Z,100635.22
2019-06-20T06:56:28.014Z,100615.09
2019-06-20T06:59:00.138Z,100618.38
2019-06-20T07:01:32.232Z,100623.08
2019-06-20T07:04:04.497Z,100626.52
2019-06-20T07:06:36.549Z,100632.45
2019-06-20T07:09:10.021Z,100617.58
2019-06-20T07:11:41.939Z,100614.22
2019-06-20T07:14:14.088Z,100622.63
2019-06-20T07:16:59.440Z,100615.66
2019-06-20T07:19:19.958Z,100615.97
2019-06-20T07:21:51.983Z,100613.19
2019-06-20T07:24:24.918Z,100612.33
2019-06-20T07:26:58.167Z,100615.14
2019-06-20T07:29:30.183Z,100619.63
2019-06-20T07:32:02.229Z,100613.17
2019-06-20T07:34:34.299Z,100610.09
2019-06-20T07:37:06.359Z,100615.47
2019-06-20T07:39:38.348Z,100604.02
2019-06-20T07:42:10.587Z,100596.45
2019-06-20T07:44:43.061Z,100603.19
2019-06-20T07:47:17.871Z,100601.50
2019-06-20T07:49:49.004Z,100597.84
2019-06-20T07:52:22.373Z,100601.50
2019-06-20T07:54:54.429Z,100601.50
2019-06-20T07:57:26.848Z,100595.89
2019-06-20T07:59:58.716Z,100582.74
2019-06-20T08:02:30.636Z,100592.81
2019-06-20T08:05:03.180Z,100587.77
2019-06-20T08:07:35.561Z,100594.75
2019-06-20T08:10:10.829Z,100582.39
2019-06-20T08:12:43.005Z,100584.33
2019-06-20T08:15:16.211Z,100580.27
2019-06-20T08:17:48.292Z,100586.83
2019-06-20T08:20:21.191Z,100581.87
2019-06-20T08:22:54.247Z,100576.19
2019-06-20T08:25:26.255Z,100575.68
2019-06-20T08:27:59.445Z,100552.96
2019-06-20T08:30:35.046Z,100572.27
2019-06-20T08:33:11.994Z,100596.03
2019-06-20T08:35:43.223Z,100585.84
2019-06-20T08:38:15.586Z,100578.52
2019-06-20T08:40:47.688Z,100583.24
2019-06-20T08:43:19.739Z,100598.39
2019-06-20T08:45:52.929Z,100580.44
2019-06-20T08:48:25.512Z,100578.53
2019-06-20T08:50:58.537Z,100586.64
2019-06-20T08:53:30.901Z,100574.31
2019-06-20T08:56:03.274Z,100573.17
2019-06-20T08:58:35.385Z,100587.45
2019-06-20T09:03:39.724Z,100587.52
2019-06-20T09:06:11.804Z,100603.17
2019-06-20T09:08:43.979Z,100574.58
2019-06-20T09:11:16.208Z,100568.63
2019-06-20T09:13:48.412Z,100577.14
2019-06-20T09:16:24.599Z,100589.89
2019-06-20T09:18:55.049Z,100589.37
2019-06-20T09:21:28.449Z,100579.09
2019-06-20T09:24:00.526Z,100575.19
2019-06-20T09:26:32.676Z,100554.14
2019-06-20T09:29:04.717Z,100557.72
2019-06-20T09:31:36.848Z,100566.45
2019-06-20T09:34:09.058Z,100552.13
2019-06-20T09:36:41.128Z,100557.11
2019-06-20T09:39:13.150Z,100559.31
2019-06-20T09:41:45.184Z,100558.16
2019-06-20T09:44:17.172Z,100554.50
2019-06-20T09:46:49.813Z,100566.34
2019-06-20T09:49:24.074Z,100557.11
2019-06-20T09:51:56.647Z,100569.76
2019-06-20T09:54:28.153Z,100568.59
2019-06-20T09:56:59.918Z,100566.89
2019-06-20T09:59:31.941Z,100571.31
2019-06-20T10:02:06.437Z,100550.66
2019-06-20T10:04:38.595Z,100550.66
2019-06-20T10:10:18.550Z,100542.71
2019-06-20T10:12:51.773Z,100532.13
2019-06-20T10:15:26.548Z,100538.30
2019-06-20T10:17:58.821Z,100544.16
2019-06-20T10:20:30.856Z,100546.84
2019-06-20T10:23:03.219Z,100541.36
2019-06-20T10:25:35.517Z,100538.72
2019-06-20T10:28:07.869Z,100541.05
2019-06-20T10:30:40.145Z,100538.64
2019-06-20T10:33:12.405Z,100541.42
2019-06-20T10:35:45.835Z,100542.33
2019-06-20T10:38:18.401Z,100531.03
2019-06-20T10:40:51.989Z,100533.84
2019-06-20T10:43:24.158Z,100533.88
2019-06-20T10:45:57.408Z,100538.20
2019-06-20T10:48:29.402Z,100535.05
2019-06-20T10:51:19.662Z,100554.58
2019-06-20T10:53:53.404Z,100553.80
2019-06-20T10:56:25.640Z,100543.44
2019-06-20T10:58:57.734Z,100531.36
2019-06-20T11:01:29.810Z,100547.44
2019-06-20T11:04:02.101Z,100538.72
2019-06-20T11:06:34.252Z,100544.80
2019-06-20T11:09:08.656Z,100535.44
2019-06-20T11:11:41.756Z,100545.29
2019-06-20T11:14:14.803Z,100538.22
2019-06-20T11:16:47.206Z,100549.59
2019-06-20T11:19:19.491Z,100536.95
2019-06-20T11:21:51.574Z,100545.09
2019-06-20T11:24:23.623Z,100560.49
2019-06-20T11:26:55.695Z,100540.14
2019-06-20T11:29:28.310Z,100542.95
2019-06-20T11:32:00.758Z,100529.55
2019-06-20T11:34:33.978Z,100532.09
2019-06-20T11:37:06.076Z,100529.36
2019-06-20T11:39:38.917Z,100542.17
2019-06-20T11:42:11.064Z,100539.34
2019-06-20T11:44:43.165Z,100527.52
2019-06-20T11:47:15.381Z,100525.31
2019-06-20T11:49:47.576Z,100520.84
2019-06-20T11:52:19.909Z,100527.55
2019-06-20T11:54:52.004Z,100528.28
2019-06-20T11:57:24.481Z,100528.92
2019-06-20T11:59:56.646Z,100523.78
2019-06-20T12:02:28.945Z,100519.52
2019-06-20T12:05:01.196Z,100515.41
2019-06-20T12:07:33.746Z,100515.55
2019-06-20T12:10:09.012Z,100514.17
2019-06-20T12:12:42.459Z,100505.84
2019-06-20T12:15:15.726Z,100507.92
2019-06-20T12:17:49.150Z,100506.56
2019-06-20T12:20:21.856Z,100501.47
2019-06-20T12:22:54.065Z,100514.45
2019-06-20T12:25:26.408Z,100503.48
2019-06-20T12:27:58.660Z,100502.67
2019-06-20T12:30:30.897Z,100519.92
2019-06-20T12:33:02.909Z,100503.56
2019-06-20T12:35:35.091Z,100513.32
2019-06-20T12:38:07.162Z,100498.63
2019-06-20T12:40:40.886Z,100488.50
2019-06-20T12:43:13.260Z,100508.28
2019-06-20T12:45:45.414Z,100496.28
2019-06-20T12:48:17.315Z,100491.50
2019-06-20T12:50:49.634Z,100492.41
2019-06-20T12:53:21.639Z,100498.36
2019-06-20T12:55:53.754Z,100482.75
2019-06-20T12:58:26.977Z,100501.87
2019-06-20T13:00:59.379Z,100500.22
2019-06-20T13:03:31.374Z,100490.61
2019-06-20T13:06:03.551Z,100489.27
2019-06-20T13:08:35.634Z,100471.70
2019-06-20T13:11:07.681Z,100477.77
2019-06-20T13:13:40.532Z,100477.77
2019-06-20T13:16:12.741Z,100469.80
2019-06-20T13:18:46.245Z,100469.83
2019-06-20T13:21:19.109Z,100472.05
2019-06-20T13:23:51.622Z,100483.73
2019-06-20T13:26:23.658Z,100475.69
2019-06-20T13:29:03.705Z,100486.95
2019-06-20T13:31:29.680Z,100461.61
2019-06-20T13:34:02.112Z,100457.09
2019-06-20T13:36:34.379Z,100463.98
2019-06-20T13:39:08.065Z,100466.41
2019-06-20T13:41:41.150Z,100465.07
2019-06-20T13:44:14.397Z,100449.36
2019-06-20T13:46:48.902Z,100449.09
2019-06-20T13:49:20.998Z,100452.20
2019-06-20T13:51:53.139Z,100456.27
2019-06-20T13:54:25.014Z,100461.23
2019-06-20T13:56:56.874Z,100453.45
2019-06-20T13:59:28.925Z,100443.33
2019-06-20T14:02:06.769Z,100439.45
2019-06-20T14:04:34.688Z,100430.45
2019-06-20T14:07:06.927Z,100447.53
2019-06-20T14:09:39.149Z,100453.57
2019-06-20T14:12:12.855Z,100449.18
2019-06-20T14:14:45.787Z,100443.78
2019-06-20T14:17:18.023Z,100459.42
2019-06-20T14:19:50.273Z,100455.86
2019-06-20T14:22:22.398Z,100450.95
2019-06-20T14:24:55.492Z,100443.66
2019-06-20T14:27:27.925Z,100468.62
2019-06-20T14:30:00.104Z,100450.95
2019-06-20T14:32:32.230Z,100451.47
2019-06-20T14:35:05.386Z,100453.70
2019-06-20T14:37:36.566Z,100445.22
2019-06-20T14:40:09.250Z,100453.13
2019-06-20T14:42:40.531Z,100472.49
2019-06-20T14:45:12.508Z,100467.79
2019-06-20T14:47:44.679Z,100468.28
2019-06-20T14:50:17.795Z,100500.67
2019-06-20T14:52:51.945Z,100479.98
2019-06-20T14:55:23.928Z,100477.47
2019-06-20T14:57:56.091Z,100466.55
2019-06-20T15:00:30.139Z,100483.66
2019-06-20T15:03:02.179Z,100472.77
2019-06-20T15:05:34.992Z,100473.55
2019-06-20T15:08:07.196Z,100477.50
2019-06-20T15:10:39.179Z,100482.88
2019-06-20T15:13:11.311Z,100483.45
2019-06-20T15:15:45.910Z,100466.60
2019-06-20T15:18:17.584Z,100471.30
2019-06-20T15:20:50.265Z,100478.90
2019-06-20T15:23:21.951Z,100494.08
2019-06-20T15:25:54.236Z,100474.73
2019-06-20T15:28:26.517Z,100480.93
2019-06-20T15:30:58.501Z,100479.52
2019-06-20T15:33:30.501Z,100486.52
2019-06-20T15:36:02.577Z,100482.38
2019-06-20T15:38:34.559Z,100494.97
2019-06-20T15:41:06.750Z,100493.06
2019-06-20T15:43:38.943Z,100480.48
2019-06-20T15:46:11.041Z,100483.59
2019-06-20T15:48:43.119Z,100477.06
2019-06-20T15:51:15.030Z,100481.05
2019-06-20T15:53:47.050Z,100479.91
2019-06-20T15:56:20.829Z,100479.63
2019-06-20T15:58:52.805Z,100493.36
2019-06-20T16:01:24.874Z,100477.41
2019-06-20T16:03:57.067Z,100472.97
2019-06-20T16:06:29.196Z,100477.22
2019-06-20T16:09:01.364Z,100474.42
2019-06-20T16:11:34.977Z,100475.83
2019-06-20T16:14:07.260Z,100488.17
2019-06-20T16:16:39.261Z,100490.42
2019-06-20T16:19:11.379Z,100483.72
2019-06-20T16:21:43.556Z,100496.34
2019-06-20T16:24:15.557Z,100491.83
2019-06-20T16:26:47.592Z,100490.78
2019-06-20T16:29:19.833Z,100487.16
2019-06-20T16:31:51.816Z,100479.89
2019-06-20T16:34:23.877Z,100484.02
2019-06-20T16:37:09.273Z,100503.11
2019-06-20T16:39:29.605Z,100477.91
2019-06-20T16:42:01.858Z,100488.02
2019-06-20T16:44:33.816Z,100494.23
2019-06-20T16:47:05.846Z,100495.34
2019-06-20T16:49:38.207Z,100490.30
2019-06-20T16:52:10.276Z,100509.64
2019-06-20T16:54:42.340Z,100492.30
2019-06-20T16:57:14.414Z,100497.87
2019-06-20T16:59:46.685Z,100497.08
2019-06-20T17:02:18.834Z,100490.63
2019-06-20T17:04:51.124Z,100495.67
2019-06-20T17:07:23.255Z,100497.36
2019-06-20T17:09:55.340Z,100494.30
2019-06-20T17:12:27.444Z,100497.64
2019-06-20T17:14:59.496Z,100499.62
2019-06-20T17:17:31.538Z,100498.22
2019-06-20T17:20:05.250Z,100507.47
2019-06-20T17:22:37.311Z,100496.82
2019-06-20T17:25:09.777Z,100497.67
2019-06-20T17:28:00.065Z,100495.13
2019-06-20T17:30:32.518Z,100501.00
2019-06-20T17:33:04.819Z,100499.03
2019-06-20T17:35:37.123Z,100506.03
2019-06-20T17:38:09.182Z,100507.69
2019-06-20T17:40:42.306Z,100510.76
2019-06-20T17:43:14.501Z,100505.09
2019-06-20T17:45:46.590Z,100509.57
2019-06-20T17:48:18.682Z,100507.89
2019-06-20T17:50:50.975Z,100512.66
2019-06-20T17:53:23.028Z,100512.34
2019-06-20T17:55:55.231Z,100515.42
2019-06-20T17:58:27.351Z,100525.44
2019-06-20T18:01:00.533Z,100521.46
2019-06-20T18:03:33.864Z,100520.63
2019-06-20T18:06:06.110Z,100516.19
2019-06-20T18:08:38.326Z,100517.27
2019-06-20T18:11:10.347Z,100519.23
2019-06-20T18:13:42.500Z,100519.23
2019-06-20T18:16:24.540Z,100527.00
2019-06-20T18:18:48.516Z,100530.38
2019-06-20T18:21:20.661Z,100529.47
2019-06-20T18:23:52.787Z,100531.93
2019-06-20T18:26:25.997Z,100534.14
2019-06-20T18:28:58.204Z,100534.97
2019-06-20T18:31:30.265Z,100548.36
2019-06-20T18:34:02.297Z,100538.81
2019-06-20T18:36:34.370Z,100538.75
2019-06-20T18:39:08.539Z,100535.95
2019-06-20T18:41:40.811Z,100544.87
2019-06-20T18:44:12.833Z,100538.47
2019-06-20T18:46:45.079Z,100547.06
2019-06-20T18:49:17.228Z,100546.19
2019-06-20T18:51:49.486Z,100552.27
2019-06-20T18:54:21.877Z,100554.16
2019-06-20T18:56:54.974Z,100545.70
2019-06-20T18:59:27.252Z,100547.67
2019-06-20T19:01:59.526Z,100544.80
2019-06-20T19:04:45.393Z,100547.25
2019-06-20T19:07:05.783Z,100546.94
2019-06-20T19:09:37.999Z,100552.80
2019-06-20T19:12:10.450Z,100548.87
2019-06-20T19:14:43.692Z,100546.27
2019-06-20T19:17:15.726Z,100544.28
2019-06-20T19:19:48.318Z,100534.23
2019-06-20T19:22:21.683Z,100544.20
2019-06-20T19:24:53.970Z,100547.28
2019-06-20T19:27:26.211Z,100546.99
2019-06-20T19:29:58.490Z,100540.77
2019-06-20T19:32:30.638Z,100548.81
2019-06-20T19:35:02.916Z,100545.16
2019-06-20T19:37:35.203Z,100544.74
2019-06-20T19:40:09.361Z,100544.74
2019-06-20T19:42:41.594Z,100548.36
2019-06-20T19:45:15.490Z,100542.95
2019-06-20T19:47:47.544Z,100552.31
2019-06-20T19:50:19.917Z,100548.38
2019-06-20T19:52:52.211Z,100551.65
2019-06-20T19:55:24.466Z,100547.94
2019-06-20T19:57:56.570Z,100548.74
2019-06-20T20:00:28.900Z,100553.38
2019-06-20T20:03:01.132Z,100556.43
2019-06-20T20:05:33.657Z,100549.66
2019-06-20T20:08:06.116Z,100554.10
2019-06-20T20:10:46.174Z,100558.49
2019-06-20T20:13:19.262Z,100562.91
2019-06-20T20:15:51.351Z,100560.82
2019-06-20T20:18:23.499Z,100561.91
2019-06-20T20:20:55.771Z,100555.73
2019-06-20T20:23:28.095Z,100556.53
2019-06-20T20:26:00.226Z,100559.94
2019-06-20T20:28:32.405Z,100564.86
2019-06-20T20:31:04.685Z,100572.88
2019-06-20T20:33:36.750Z,100571.55
2019-06-20T20:36:23.764Z,100583.80
2019-06-20T20:38:42.792Z,100583.03
2019-06-20T20:41:15.048Z,100585.43
2019-06-20T20:43:47.123Z,100582.09
2019-06-20T20:46:19.248Z,100588.25
2019-06-20T20:48:51.277Z,100586.70
2019-06-20T20:51:23.552Z,100579.92
2019-06-20T20:53:56.197Z,100588.82
2019-06-20T20:56:28.474Z,100597.63
2019-06-20T20:59:00.488Z,100599.94
2019-06-20T21:01:35.484Z,100607.82
2019-06-20T21:04:06.510Z,100603.55
2019-06-20T21:06:38.798Z,100600.92
2019-06-20T21:09:11.098Z,100608.44
2019-06-20T21:11:43.228Z,100609.87
2019-06-20T21:14:15.458Z,100616.78
2019-06-20T21:16:47.604Z,100626.77
2019-06-20T21:19:19.801Z,100625.98
2019-06-20T21:21:52.180Z,100623.43
2019-06-20T21:24:25.512Z,100631.05
2019-06-20T21:26:57.780Z,100628.05
2019-06-20T21:29:29.981Z,100630.75
2019-06-20T21:32:02.212Z,100635.66
2019-06-20T21:34:34.558Z,100641.92
2019-06-20T21:37:06.535Z,100639.38
2019-06-20T21:39:39.006Z,100636.41
2019-06-20T21:42:11.094Z,100637.36
2019-06-20T21:44:43.163Z,100644.72
2019-06-20T21:47:15.513Z,100643.05
2019-06-20T21:49:47.449Z,100651.53
2019-06-20T21:52:19.644Z,100650.14
2019-06-20T21:54:51.670Z,100653.95
2019-06-20T21:57:23.934Z,100657.52
2019-06-20T21:59:56.101Z,100653.27
2019-06-20T22:02:28.407Z,100657.31
2019-06-20T22:05:00.690Z,100657.79
2019-06-20T22:07:32.868Z,100657.66
2019-06-20T22:10:07.088Z,100649.32
2019-06-20T22:12:39.201Z,100651.80
2019-06-20T22:15:11.626Z,100650.41
2019-06-20T22:17:43.780Z,100650.50
2019-06-20T22:20:17.634Z,100642.38
2019-06-20T22:22:50.181Z,100646.38
2019-06-20T22:25:24.780Z,100649.19
2019-06-20T22:27:57.788Z,100651.52
2019-06-20T22:30:44.596Z,100652.41
2019-06-20T22:33:16.879Z,100648.30
2019-06-20T22:35:49.346Z,100651.73
2019-06-20T22:38:21.552Z,100647.05
2019-06-20T22:40:53.711Z,100649.20
2019-06-20T22:43:26.059Z,100642.34
2019-06-20T22:45:58.250Z,100647.03
2019-06-20T22:48:30.558Z,100634.20
2019-06-20T22:51:02.884Z,100634.09
2019-06-20T22:53:35.069Z,100638.52
2019-06-20T22:56:07.202Z,100637.89
2019-06-20T22:58:39.495Z,100641.61
2019-06-20T23:01:11.755Z,100648.48
2019-06-20T23:03:44.013Z,100651.19
2019-06-20T23:06:16.224Z,100642.45
2019-06-20T23:08:48.455Z,100646.16
2019-06-20T23:11:20.723Z,100646.93
2019-06-20T23:13:52.987Z,100652.36
2019-06-20T23:16:25.174Z,100645.16
2019-06-20T23:18:58.454Z,100647.03
2019-06-20T23:21:30.771Z,100642.88
2019-06-20T23:24:03.099Z,100645.38
2019-06-20T23:26:35.368Z,100647.98
2019-06-20T23:29:22.668Z,100649.06
2019-06-20T23:31:55.935Z,100645.62
2019-06-20T23:34:27.457Z,100644.32
2019-06-20T23:37:12.212Z,100645.36
2019-06-20T23:39:33.477Z,100645.90
2019-06-20T23:42:05.816Z,100649.69
2019-06-20T23:44:38.090Z,100652.22
2019-06-20T23:47:10.153Z,100652.91
2019-06-20T23:49:42.321Z,100654.23
2019-06-20T23:52:16.198Z,100654.05
2019-06-20T23:54:48.366Z,100658.19
2019-06-20T23:57:20.462Z,100657.08
2019-06-20T23:59:52.711Z,100657.77
